Time;durP1;ratioP1;P1;durP2;ratioP2;P2;SDS_P1;SDS_P2;PMS_P1;PMS_P2;Temp;Humidity;BMP_temperature;BMP_pressure;BME280_temperature;BME280_humidity;BME280_pressure;Samples;Min_cycle;Max_cycle;Signal;HPM_P1;HPM_P2
2022/11/15 00:00:50;;;;;;;;;9.75;8.00;;;;;12.60;81.85;99125.63;4945705;28;45451;-78
2022/11/15 00:03:20;;;;;;;;;10.25;10.00;;;;;12.61;81.77;99127.34;4945551;28;45500;-77
2022/11/15 00:05:46;;;;;;;;;10.75;10.75;;;;;12.59;82.19;99127.41;4946919;28;45637;-77
2022/11/15 00:08:12;;;;;;;;;9.00;9.00;;;;;12.57;82.22;99124.00;4952392;28;45484;-78
2022/11/15 00:10:38;;;;;;;;;8.75;8.75;;;;;12.57;82.51;99121.34;4948964;28;45602;-77
2022/11/15 00:13:08;;;;;;;;;10.00;10.00;;;;;12.57;82.62;99112.56;4954747;28;45507;-77
2022/11/15 00:15:38;;;;;;;;;12.00;10.25;;;;;12.54;82.93;99110.94;4954163;28;45548;-77
2022/11/15 00:18:05;;;;;;;;;11.25;11.00;;;;;12.53;83.09;99114.53;4954860;28;45488;-77
2022/11/15 00:20:31;;;;;;;;;12.50;10.75;;;;;12.50;83.24;99109.38;4952829;28;45453;-78
2022/11/15 00:22:56;;;;;;;;;10.50;9.25;;;;;12.48;83.79;99113.00;4956443;28;45446;-78
2022/11/15 00:25:22;;;;;;;;;11.75;11.25;;;;;12.46;83.29;99114.88;4955321;28;45510;-77
2022/11/15 00:27:47;;;;;;;;;9.50;9.00;;;;;12.44;83.48;99114.09;4948900;28;46687;-78
2022/11/15 00:30:13;;;;;;;;;8.00;7.75;;;;;12.44;83.07;99111.44;4954603;28;45397;-77
2022/11/15 00:32:38;;;;;;;;;9.50;9.50;;;;;12.41;83.49;99099.22;4952974;28;45476;-78
2022/11/15 00:35:04;;;;;;;;;10.25;9.25;;;;;12.41;83.98;99101.00;4951610;28;45607;-77
2022/11/15 00:37:29;;;;;;;;;11.00;9.25;;;;;12.41;84.45;99098.34;4950669;28;46271;-80
2022/11/15 00:39:54;;;;;;;;;13.00;10.50;;;;;12.40;84.49;99097.50;4950765;28;45428;-77
2022/11/15 00:42:20;;;;;;;;;11.50;10.00;;;;;12.38;84.39;99098.53;4955113;28;45632;-79
2022/11/15 00:44:45;;;;;;;;;15.25;12.00;;;;;12.38;84.21;99088.81;4954095;28;45371;-77
2022/11/15 00:47:11;;;;;;;;;11.00;9.75;;;;;12.37;84.72;99088.88;4954597;28;46097;-80
2022/11/15 00:49:36;;;;;;;;;14.75;14.00;;;;;12.33;85.05;99089.94;4951124;28;45457;-77
2022/11/15 00:52:01;;;;;;;;;15.75;14.50;;;;;12.31;85.33;99078.59;4954676;28;45412;-77
2022/11/15 00:54:27;;;;;;;;;14.25;13.75;;;;;12.27;85.56;99092.88;4951916;28;45669;-78
2022/11/15 00:56:52;;;;;;;;;13.50;11.75;;;;;12.26;85.98;99093.81;4958965;28;46423;-78
2022/11/15 00:59:17;;;;;;;;;15.00;12.50;;;;;12.23;86.04;99100.13;4955463;28;45381;-77
2022/11/15 01:01:43;;;;;;;;;16.75;13.25;;;;;12.22;85.92;99090.47;4965227;28;45395;-78
2022/11/15 01:04:08;;;;;;;;;12.25;11.00;;;;;12.19;86.38;99094.13;4949970;28;45677;-77
2022/11/15 01:06:34;;;;;;;;;11.75;11.75;;;;;12.18;86.40;99104.75;4954529;28;46066;-78
2022/11/15 01:08:59;;;;;;;;;15.75;11.00;;;;;12.16;86.54;99096.03;4954736;28;45406;-78
2022/11/15 01:11:24;;;;;;;;;12.75;11.50;;;;;12.13;86.70;99099.69;4955143;28;45726;-78
2022/11/15 01:13:50;;;;;;;;;17.00;12.00;;;;;12.13;87.03;99099.69;4945549;28;45596;-78
2022/11/15 01:16:18;;;;;;;;;14.50;11.50;;;;;12.13;87.30;99097.03;4964461;28;45472;-78
2022/11/15 01:18:44;;;;;;;;;11.50;11.00;;;;;12.12;87.29;99097.97;4943169;28;45449;-78
2022/11/15 01:21:15;;;;;;;;;10.75;10.75;;;;;12.13;86.92;99097.03;4944374;28;45405;-78
2022/11/15 01:23:41;;;;;;;;;14.75;12.00;;;;;12.10;87.19;99097.16;4949544;28;45352;-79
2022/11/15 01:26:09;;;;;;;;;12.00;12.00;;;;;12.09;87.44;99089.31;4957471;28;45454;-78
2022/11/15 01:28:37;;;;;;;;;12.25;11.75;;;;;12.06;87.58;99082.41;4941252;28;45395;-78
2022/11/15 01:31:05;;;;;;;;;13.75;13.75;;;;;12.05;87.85;99080.69;4939546;28;45432;-78
2022/11/15 01:33:30;;;;;;;;;15.75;11.00;;;;;12.03;87.92;99081.69;4944216;28;45547;-78
2022/11/15 01:35:56;;;;;;;;;15.50;13.50;;;;;12.00;87.93;99077.41;4950521;28;46446;-78
2022/11/15 01:38:26;;;;;;;;;16.25;14.00;;;;;11.98;88.11;99081.91;4962223;28;45437;-77
2022/11/15 01:40:52;;;;;;;;;13.25;12.75;;;;;11.93;88.28;99073.31;4948778;28;45331;-78
2022/11/15 01:43:20;;;;;;;;;13.25;11.75;;;;;11.92;88.48;99078.66;4952110;28;45383;-78
2022/11/15 01:45:53;;;;;;;;;11.50;9.75;;;;;11.90;88.52;99084.03;4957035;28;46425;-78
2022/11/15 01:48:19;;;;;;;;;15.25;13.00;;;;;11.88;88.46;99081.47;4956949;28;45578;-69
2022/11/15 01:50:45;;;;;;;;;14.00;13.50;;;;;11.85;88.92;99078.97;4960815;28;45425;-69
2022/11/15 01:53:10;;;;;;;;;13.75;12.50;;;;;11.85;89.10;99081.63;4956314;28;45524;-77
2022/11/15 01:55:36;;;;;;;;;14.00;13.00;;;;;11.83;89.67;99070.25;4968054;28;45578;-78
2022/11/15 01:58:05;;;;;;;;;14.25;14.25;;;;;11.81;89.53;99068.59;4946534;28;45383;-77
2022/11/15 02:00:31;;;;;;;;;15.25;12.50;;;;;11.79;89.65;99060.75;4961492;28;45463;-78
2022/11/15 02:02:57;;;;;;;;;13.25;12.00;;;;;11.78;89.80;99055.53;4969445;28;45619;-78
2022/11/15 02:05:23;;;;;;;;;14.25;13.75;;;;;11.78;90.05;99050.25;4959314;28;46314;-77
2022/11/15 02:07:49;;;;;;;;;11.50;10.50;;;;;11.79;90.10;99046.69;4939117;28;45380;-77
2022/11/15 02:10:19;;;;;;;;;14.75;14.25;;;;;11.78;90.21;99052.91;4956424;28;45459;-77
2022/11/15 02:12:46;;;;;;;;;13.75;12.25;;;;;11.78;90.11;99045.81;4955478;28;45395;-77
2022/11/15 02:15:12;;;;;;;;;12.50;11.75;;;;;11.78;90.15;99047.63;4956051;28;45559;-77
2022/11/15 02:17:49;;;;;;;;;12.00;12.00;;;;;11.78;90.36;99039.69;4966033;28;45374;-77
2022/11/15 02:20:15;;;;;;;;;16.00;13.75;;;;;11.79;90.21;99041.41;4951732;28;45454;-77
2022/11/15 02:23:18;;;;;;;;;17.50;14.00;;;;;11.78;90.57;99032.63;4949334;28;45432;-78
2022/11/15 02:26:21;;;;;;;;;14.50;12.25;;;;;11.77;90.52;99032.69;4948921;28;47315;-78
2022/11/15 02:29:05;;;;;;;;;17.00;15.00;;;;;11.75;90.32;99037.16;4940862;28;45426;-77
2022/11/15 02:31:53;;;;;;;;;14.00;11.75;;;;;11.76;90.54;99038.91;4945886;28;45362;-77
2022/11/15 02:34:28;;;;;;;;;15.25;14.25;;;;;11.75;90.87;99035.38;4947248;28;45462;-77
2022/11/15 02:36:53;;;;;;;;;12.75;12.50;;;;;11.76;91.01;99028.34;4954500;28;45627;-77
2022/11/15 02:39:30;;;;;;;;;16.75;13.00;;;;;11.76;90.95;99023.91;4971470;28;45491;-78
2022/11/15 02:43:56;;;;;;;;;14.25;13.25;;;;;11.75;90.90;99019.53;4968029;28;45491;-78
2022/11/15 02:44:57;;;;;;;;;15.50;14.25;;;;;11.76;90.93;99018.63;4945552;28;45475;-77
2022/11/15 02:47:25;;;;;;;;;14.25;14.25;;;;;11.76;90.95;99015.13;4951939;28;47438;-77
2022/11/15 02:49:53;;;;;;;;;12.00;11.75;;;;;11.75;91.15;99010.75;4949569;28;45544;-77
2022/11/15 02:52:25;;;;;;;;;16.50;11.50;;;;;11.75;91.12;99010.75;4956204;28;45542;-77
2022/11/15 02:55:28;;;;;;;;;20.25;15.00;;;;;11.75;91.27;99010.75;4946159;28;45422;-78
2022/11/15 02:58:06;;;;;;;;;13.25;11.75;;;;;11.72;91.35;99009.13;4951514;28;47263;-77
2022/11/15 03:00:38;;;;;;;;;14.75;12.00;;;;;11.72;91.48;99010.91;4948507;28;45478;-77
2022/11/15 03:03:41;;;;;;;;;13.50;11.75;;;;;11.72;91.69;99003.84;4956586;28;45493;-78
2022/11/15 03:06:24;;;;;;;;;16.75;12.00;;;;;11.72;91.48;99005.63;4949707;28;45549;-78
2022/11/15 03:09:20;;;;;;;;;13.00;13.00;;;;;11.71;91.27;99009.19;4959197;28;46376;-78
2022/11/15 03:11:55;;;;;;;;;10.50;7.75;;;;;11.71;91.66;99003.91;4942910;28;45342;-77
2022/11/15 03:14:29;;;;;;;;;14.50;14.50;;;;;11.72;91.86;99008.28;4959910;28;45383;-78
2022/11/15 03:17:00;;;;;;;;;19.75;17.75;;;;;11.73;91.84;99000.25;4958279;28;45418;-79
2022/11/15 03:20:00;;;;;;;;;14.75;14.75;;;;;11.74;91.98;99007.25;4952081;28;46115;-78
2022/11/15 03:22:30;;;;;;;;;14.75;13.00;;;;;11.76;92.23;99009.84;4954945;28;45394;-78
2022/11/15 03:25:03;;;;;;;;;13.75;12.50;;;;;11.79;92.13;99015.00;4955719;28;45505;-78
2022/11/15 03:27:35;;;;;;;;;12.50;12.25;;;;;11.77;92.08;99015.06;4948631;28;45268;-78
2022/11/15 03:30:06;;;;;;;;;17.00;15.00;;;;;11.77;92.49;99009.78;4954017;28;46626;-78
2022/11/15 03:32:38;;;;;;;;;12.75;11.50;;;;;11.77;91.86;99014.19;4955360;28;45473;-78
2022/11/15 03:35:20;;;;;;;;;24.25;20.00;;;;;11.77;92.35;99007.13;4954966;28;45620;-78
2022/11/15 03:37:48;;;;;;;;;18.50;16.00;;;;;11.75;92.60;98990.47;4943864;28;45387;-77
2022/11/15 03:40:14;;;;;;;;;18.75;17.50;;;;;11.73;92.28;98988.84;4953747;28;46891;-77
2022/11/15 03:42:56;;;;;;;;;15.50;15.25;;;;;11.70;92.47;98989.00;4948993;28;45445;-78
2022/11/15 03:45:35;;;;;;;;;19.25;17.50;;;;;11.69;92.85;98976.72;4941558;28;45399;-78
2022/11/15 03:48:09;;;;;;;;;12.50;11.50;;;;;11.67;92.99;98963.59;4946360;28;45444;-78
2022/11/15 03:50:35;;;;;;;;;12.00;10.50;;;;;11.68;92.82;98960.00;4959080;28;46844;-77
2022/11/15 03:53:02;;;;;;;;;10.50;10.00;;;;;11.67;92.71;98955.66;4937899;28;45486;-78
2022/11/15 03:55:27;;;;;;;;;16.00;12.25;;;;;11.67;93.18;98963.59;4947668;28;45406;-79
2022/11/15 03:57:57;;;;;;;;;13.25;12.25;;;;;11.66;92.90;98963.66;4942240;28;45618;-77
2022/11/15 04:00:22;;;;;;;;;14.50;13.25;;;;;11.65;93.00;98969.84;4954397;28;46352;-77
2022/11/15 04:02:48;;;;;;;;;12.25;12.25;;;;;11.65;92.99;98967.22;4951378;28;45379;-77
2022/11/15 04:05:13;;;;;;;;;11.00;11.00;;;;;11.66;93.23;98961.88;4943989;28;45444;-77
2022/11/15 04:07:39;;;;;;;;;16.50;12.75;;;;;11.66;93.16;98956.59;4949879;28;45508;-77
2022/11/15 04:10:07;;;;;;;;;12.25;11.50;;;;;11.66;93.14;98947.81;4948374;28;46350;-79
2022/11/15 04:12:36;;;;;;;;;17.50;15.50;;;;;11.65;93.43;98954.00;4948934;28;45595;-79
2022/11/15 04:15:09;;;;;;;;;14.50;12.00;;;;;11.63;93.47;98953.22;4966219;28;45463;-77
2022/11/15 04:17:40;;;;;;;;;13.75;11.25;;;;;11.63;93.66;98940.03;4945724;28;45437;-77
2022/11/15 04:25:39;;;;;;;;;9.50;9.25;;;;;11.59;93.63;98928.75;4943683;28;45344;-78
2022/11/15 04:28:04;;;;;;;;;11.75;9.00;;;;;11.59;93.88;98926.09;4945077;28;45526;-78
2022/11/15 04:30:30;;;;;;;;;16.00;16.00;;;;;11.57;93.93;98927.97;4949253;28;46208;-77
2022/11/15 04:32:55;;;;;;;;;15.50;13.25;;;;;11.56;94.09;98925.41;4954231;28;45327;-77
2022/11/15 04:35:20;;;;;;;;;7.25;7.25;;;;;11.54;94.11;98915.78;4952785;28;45319;-79
2022/11/15 04:37:46;;;;;;;;;14.75;13.75;;;;;11.53;94.44;98923.78;4954806;28;45502;-78
2022/11/15 04:40:11;;;;;;;;;20.25;13.00;;;;;11.52;94.32;98920.28;4969655;28;47482;-78
2022/11/15 04:42:36;;;;;;;;;11.00;10.00;;;;;11.53;94.25;98915.84;4950776;28;45438;-78
2022/11/15 04:45:02;;;;;;;;;17.00;14.00;;;;;11.52;94.89;98919.41;4950638;28;45529;-77
2022/11/15 04:47:29;;;;;;;;;14.00;13.75;;;;;11.52;94.65;98916.78;4948806;28;45556;-77
2022/11/15 04:49:54;;;;;;;;;12.00;12.00;;;;;11.50;94.55;98905.44;4949010;28;46467;-77
2022/11/15 04:52:20;;;;;;;;;17.00;14.50;;;;;11.49;94.77;98903.72;4952517;28;45402;-80
2022/11/15 04:54:45;;;;;;;;;16.50;15.50;;;;;11.48;94.83;98894.94;4952148;28;45495;-78
2022/11/15 04:57:11;;;;;;;;;14.00;12.25;;;;;11.45;94.56;98889.81;4946853;28;45617;-78
2022/11/15 04:59:36;;;;;;;;;15.25;15.25;;;;;11.44;94.79;98890.72;4954628;28;45481;-78
2022/11/15 05:02:01;;;;;;;;;16.00;14.25;;;;;11.45;94.81;98892.44;4958126;28;45455;-78
2022/11/15 05:04:27;;;;;;;;;18.25;16.00;;;;;11.46;94.91;98899.44;4947389;28;45440;-78
2022/11/15 05:06:52;;;;;;;;;16.75;16.50;;;;;11.47;94.94;98885.31;4937811;28;45502;-79
2022/11/15 05:09:19;;;;;;;;;22.00;17.75;;;;;11.45;94.79;98878.38;4949534;28;46472;-78
2022/11/15 05:11:45;;;;;;;;;18.75;17.50;;;;;11.43;94.92;98875.81;4957804;28;45464;-78
2022/11/15 05:14:11;;;;;;;;;16.25;16.00;;;;;11.44;94.78;98876.69;4953249;28;45373;-79
2022/11/15 05:16:37;;;;;;;;;12.75;12.75;;;;;11.43;94.91;98873.19;4942465;28;45533;-79
2022/11/15 05:19:02;;;;;;;;;16.50;14.00;;;;;11.44;94.86;98866.13;4955883;28;47408;-79
2022/11/15 05:21:27;;;;;;;;;14.75;13.25;;;;;11.45;94.98;98870.47;4957022;28;45370;-79
2022/11/15 05:23:53;;;;;;;;;16.00;12.00;;;;;11.43;94.97;98859.97;4943658;28;45371;-79
2022/11/15 05:26:18;;;;;;;;;15.25;12.00;;;;;11.43;94.79;98856.47;4962575;28;45304;-79
2022/11/15 05:28:44;;;;;;;;;16.50;16.00;;;;;11.41;94.97;98846.00;4945788;28;45603;-79
2022/11/15 05:31:15;;;;;;;;;15.50;13.50;;;;;11.40;95.14;98841.66;4946637;28;46028;-78
2022/11/15 05:33:42;;;;;;;;;14.00;13.50;;;;;11.41;95.50;98842.50;4955963;28;45363;-79
2022/11/15 05:36:16;;;;;;;;;12.00;12.00;;;;;11.41;95.14;98843.34;4957573;28;45383;-78
2022/11/15 05:38:42;;;;;;;;;18.50;16.00;;;;;11.40;95.52;98844.28;4969055;28;47307;-79
2022/11/15 05:41:08;;;;;;;;;17.50;14.00;;;;;11.41;95.53;98843.34;4945103;28;45371;-79
2022/11/15 05:43:37;;;;;;;;;17.25;14.75;;;;;11.43;95.82;98840.66;4952257;28;45281;-78
2022/11/15 05:46:04;;;;;;;;;13.50;11.50;;;;;11.45;95.75;98841.44;4950121;28;45298;-79
2022/11/15 05:48:30;;;;;;;;;18.25;18.00;;;;;11.46;95.71;98843.16;4944935;28;45480;-78
2022/11/15 05:50:56;;;;;;;;;18.00;14.75;;;;;11.46;95.58;98841.38;4956366;28;45319;-78
2022/11/15 05:53:24;;;;;;;;;14.25;14.00;;;;;11.45;95.54;98830.88;4946599;28;45320;-79
2022/11/15 05:55:51;;;;;;;;;14.50;14.25;;;;;11.47;95.02;98826.38;4956841;28;45442;-78
2022/11/15 05:58:17;;;;;;;;;14.00;14.00;;;;;11.46;95.36;98836.09;4945509;28;48205;-78
2022/11/15 06:00:43;;;;;;;;;13.50;12.25;;;;;11.44;95.32;98842.34;4954059;28;45379;-78
2022/11/15 06:03:08;;;;;;;;;12.50;12.50;;;;;11.44;95.72;98832.66;4959308;28;45606;-78
2022/11/15 06:05:34;;;;;;;;;14.00;13.25;;;;;11.43;95.60;98836.22;4942292;28;45414;-78
2022/11/15 06:07:59;;;;;;;;;15.00;13.75;;;;;11.44;95.83;98839.72;4953438;28;46333;-78
2022/11/15 06:10:26;;;;;;;;;14.00;12.00;;;;;11.44;95.71;98830.00;4944642;28;45474;-79
2022/11/15 06:13:02;;;;;;;;;11.00;11.00;;;;;11.46;95.50;98841.38;4956336;28;45487;-78
2022/11/15 06:15:28;;;;;;;;;5.50;5.00;;;;;11.45;95.67;98838.78;4953048;28;45404;-78
2022/11/15 06:17:57;;;;;;;;;10.50;10.00;;;;;11.44;95.66;98840.56;4950636;28;46529;-79
2022/11/15 06:20:24;;;;;;;;;14.00;13.25;;;;;11.44;95.82;98835.28;4970289;28;45403;-79
2022/11/15 06:22:49;;;;;;;;;12.75;12.75;;;;;11.43;95.80;98833.59;4955222;28;45442;-80
2022/11/15 06:25:14;;;;;;;;;14.50;14.50;;;;;11.43;95.42;98838.00;4954890;28;45631;-79
2022/11/15 06:27:40;;;;;;;;;16.00;13.50;;;;;11.41;95.63;98824.88;4955534;28;45962;-79
2022/11/15 06:30:06;;;;;;;;;11.00;11.00;;;;;11.40;96.04;98823.16;4950227;28;45454;-79
2022/11/15 06:32:31;;;;;;;;;13.25;11.00;;;;;11.40;95.62;98830.22;4955040;28;45370;-79
2022/11/15 06:34:56;;;;;;;;;14.75;12.25;;;;;11.41;95.70;98832.81;4961127;28;45650;-80
2022/11/15 06:37:22;;;;;;;;;18.00;13.50;;;;;11.42;95.83;98836.28;4949469;28;45644;-81
2022/11/15 06:39:47;;;;;;;;;8.75;8.25;;;;;11.42;95.93;98834.50;4955281;28;45320;-80
2022/11/15 06:42:12;;;;;;;;;14.75;12.25;;;;;11.42;95.86;98831.88;4955607;28;45915;-80
2022/11/15 06:44:38;;;;;;;;;12.75;12.50;;;;;11.41;95.86;98829.31;4953019;28;45474;-80
2022/11/15 06:47:03;;;;;;;;;14.75;13.25;;;;;11.42;95.99;98837.16;4929852;28;46068;-79
2022/11/15 06:49:28;;;;;;;;;17.25;14.00;;;;;11.44;95.89;98843.22;4958274;28;45339;-78
2022/11/15 06:51:54;;;;;;;;;18.00;14.25;;;;;11.44;96.00;98848.50;4963646;28;45838;-79
2022/11/15 06:54:20;;;;;;;;;16.50;13.75;;;;;11.44;95.75;98837.94;4967124;28;45767;-78
2022/11/15 06:56:46;;;;;;;;;18.50;16.50;;;;;11.45;95.42;98842.28;4964368;28;45492;-78
2022/11/15 06:59:11;;;;;;;;;20.00;18.50;;;;;11.45;96.06;98834.38;4951379;28;45442;-78
2022/11/15 07:01:37;;;;;;;;;24.67;23.33;;;;;11.45;96.01;98837.00;4948211;28;45356;-78
2022/11/15 07:04:02;;;;;;;;;18.50;16.75;;;;;11.46;96.23;98838.72;4961401;28;45497;-80
2022/11/15 07:06:27;;;;;;;;;20.00;16.75;;;;;11.48;96.32;98850.06;4952358;28;46032;-79
2022/11/15 07:08:53;;;;;;;;;20.75;20.25;;;;;11.50;96.54;98840.28;4943159;28;45509;-80
2022/11/15 07:11:18;;;;;;;;;14.00;13.50;;;;;11.53;96.09;98834.88;4939342;28;45704;-80
2022/11/15 07:13:43;;;;;;;;;17.50;12.75;;;;;11.54;96.24;98833.94;4944515;28;45344;-80
2022/11/15 07:16:10;;;;;;;;;17.75;15.00;;;;;11.56;95.87;98835.66;4937479;28;45411;-80
2022/11/15 07:18:39;;;;;;;;;17.50;14.00;;;;;11.59;95.83;98831.06;4934068;28;45538;-79
2022/11/15 07:21:08;;;;;;;;;13.25;13.25;;;;;11.60;95.75;98832.75;4960592;28;45442;-78
2022/11/15 07:23:36;;;;;;;;;11.25;10.75;;;;;11.62;95.71;98835.34;4947530;28;45452;-80
2022/11/15 07:26:01;;;;;;;;;15.50;12.75;;;;;11.63;95.45;98835.25;4954011;28;46080;-78
2022/11/15 07:28:27;;;;;;;;;11.75;11.25;;;;;11.65;95.37;98822.00;4947558;28;45537;-79
2022/11/15 07:30:52;;;;;;;;;13.25;11.50;;;;;11.67;95.63;98821.00;4953190;28;45562;-80
2022/11/15 07:33:18;;;;;;;;;14.00;13.25;;;;;11.72;95.59;98823.41;4948161;28;45283;-78
2022/11/15 07:35:46;;;;;;;;;10.00;9.25;;;;;11.75;95.49;98836.44;4949258;28;46560;-78
2022/11/15 07:38:11;;;;;;;;;16.00;13.50;;;;;11.78;95.22;98839.81;4945524;28;45547;-80
2022/11/15 07:40:37;;;;;;;;;17.25;11.25;;;;;11.82;95.16;98837.88;4952981;28;45529;-80
2022/11/15 07:43:05;;;;;;;;;8.50;8.50;;;;;11.86;95.18;98831.53;4953181;28;45556;-79
2022/11/15 07:45:33;;;;;;;;;16.00;15.75;;;;;11.91;94.97;98833.91;4953999;28;45355;-79
2022/11/15 07:47:58;;;;;;;;;17.00;12.00;;;;;11.95;94.70;98830.19;4961113;28;45512;-79
2022/11/15 07:50:24;;;;;;;;;22.00;16.75;;;;;11.97;94.73;98830.97;4960517;28;45489;-80
2022/11/15 07:52:58;;;;;;;;;14.00;14.00;;;;;12.01;94.78;98824.63;4946324;28;45552;-80
2022/11/15 07:55:26;;;;;;;;;12.00;12.00;;;;;12.05;94.54;98821.75;4942790;28;47152;-79
2022/11/15 07:57:52;;;;;;;;;16.75;14.50;;;;;12.09;94.34;98830.34;4945311;28;45456;-80
2022/11/15 08:00:18;;;;;;;;;15.75;13.50;;;;;12.12;93.74;98836.34;4943708;28;45384;-80
2022/11/15 08:02:44;;;;;;;;;13.75;13.75;;;;;12.16;nan;98837.06;4936525;28;45552;-80
2022/11/15 08:05:09;;;;;;;;;13.00;11.50;;;;;12.18;93.50;98830.75;4943538;28;46046;-79
2022/11/15 08:07:35;;;;;;;;;18.50;14.00;;;;;12.21;93.23;98820.03;4940393;28;45486;-79
2022/11/15 08:10:01;;;;;;;;;10.75;9.75;;;;;12.27;93.36;98820.63;4953569;28;45355;-80
2022/11/15 08:12:28;;;;;;;;;16.75;14.75;;;;;12.31;93.13;98817.75;4950553;28;45391;-79
2022/11/15 08:14:55;;;;;;;;;12.00;10.00;;;;;12.37;92.80;98817.44;4962780;28;46595;-79
2022/11/15 08:17:21;;;;;;;;;12.00;12.00;;;;;12.43;92.83;98806.53;4944342;28;45454;-80
2022/11/15 08:19:46;;;;;;;;;15.25;14.00;;;;;12.48;92.77;98811.59;4945214;28;45410;-80
2022/11/15 08:22:11;;;;;;;;;11.75;10.25;;;;;12.53;92.18;98809.56;4941549;28;45510;-80
2022/11/15 08:24:38;;;;;;;;;17.50;14.00;;;;;12.56;92.21;98809.41;4949108;28;45511;-79
2022/11/15 08:27:03;;;;;;;;;21.00;19.25;;;;;12.59;92.54;98809.22;4965814;28;46075;-80
2022/11/15 08:29:28;;;;;;;;;14.25;14.25;;;;;12.63;92.11;98809.91;4950311;28;45453;-80
2022/11/15 08:31:55;;;;;;;;;16.50;15.00;;;;;12.65;91.95;98803.63;4947060;28;45466;-79
2022/11/15 08:34:21;;;;;;;;;13.25;12.50;;;;;12.69;91.67;98802.53;4946674;28;46491;-80
2022/11/15 08:36:46;;;;;;;;;17.00;14.50;;;;;12.72;91.61;98802.34;4953873;28;45355;-80
2022/11/15 08:39:13;;;;;;;;;13.75;13.00;;;;;12.77;91.96;98792.38;4956786;28;45477;-80
2022/11/15 08:41:38;;;;;;;;;13.50;13.00;;;;;12.82;91.52;98794.78;4956069;28;45404;-80
2022/11/15 08:44:04;;;;;;;;;16.75;15.25;;;;;12.86;92.05;98791.88;4956626;28;45496;-79
2022/11/15 08:46:30;;;;;;;;;16.00;15.50;;;;;12.92;91.13;98790.66;4951870;28;45466;-79
2022/11/15 08:48:55;;;;;;;;;17.25;16.75;;;;;12.96;90.97;98783.44;4965864;28;45681;-79
2022/11/15 08:51:20;;;;;;;;;15.00;14.25;;;;;12.96;90.68;98794.00;4951923;28;45446;-77
2022/11/15 08:53:46;;;;;;;;;10.75;10.75;;;;;12.99;90.73;98791.19;4961144;28;45533;-78
2022/11/15 08:56:14;;;;;;;;;18.75;15.00;;;;;13.02;90.87;98783.09;4952528;28;45438;-79
2022/11/15 08:58:40;;;;;;;;;15.75;15.75;;;;;13.09;91.00;98781.81;4949477;28;45431;-78
2022/11/15 09:01:06;;;;;;;;;18.75;17.75;;;;;13.14;90.67;98780.63;4952023;28;45420;-78
2022/11/15 09:03:31;;;;;;;;;14.75;14.75;;;;;13.20;90.51;98779.47;4952721;28;45405;-80
2022/11/15 09:05:59;;;;;;;;;16.00;16.00;;;;;13.23;90.44;98780.16;4942260;28;45454;-78
2022/11/15 09:08:25;;;;;;;;;16.00;13.25;;;;;13.29;90.38;98773.63;4944082;28;45481;-79
2022/11/15 09:10:51;;;;;;;;;15.25;13.75;;;;;13.35;90.06;98761.84;4954098;28;46033;-79
2022/11/15 09:13:17;;;;;;;;;17.00;14.50;;;;;13.38;89.61;98765.19;4949384;28;45422;-80
2022/11/15 09:15:42;;;;;;;;;16.00;16.00;;;;;13.44;89.53;98764.81;4956947;28;45420;-80
2022/11/15 09:18:08;;;;;;;;;13.75;13.00;;;;;13.48;89.53;98761.06;4957476;28;45412;-80
2022/11/15 09:20:33;;;;;;;;;12.25;12.00;;;;;13.50;89.22;98756.53;4957467;28;45531;-79
2022/11/15 09:23:00;;;;;;;;;18.00;17.00;;;;;13.56;88.97;98750.03;4968898;28;47545;-80
2022/11/15 09:25:26;;;;;;;;;17.25;17.25;;;;;13.58;88.86;98746.31;4956692;28;45332;-79
2022/11/15 09:27:52;;;;;;;;;16.50;16.50;;;;;13.63;88.65;98743.41;4956990;28;45353;-79
2022/11/15 09:30:17;;;;;;;;;20.25;16.00;;;;;13.68;89.14;98751.97;4956170;28;45410;-80
2022/11/15 09:32:42;;;;;;;;;15.00;12.00;;;;;13.75;88.66;98728.59;4950580;28;45479;-79
2022/11/15 09:35:08;;;;;;;;;12.25;10.25;;;;;13.79;87.96;98735.41;4956546;28;45513;-79
2022/11/15 09:37:33;;;;;;;;;11.50;11.25;;;;;13.82;88.25;98741.41;4958658;28;45379;-79
2022/11/15 09:39:59;;;;;;;;;12.75;11.75;;;;;13.86;88.13;98723.53;4958323;28;45419;-79
2022/11/15 09:42:27;;;;;;;;;9.75;9.75;;;;;13.89;87.95;98734.81;4954862;28;45520;-79
2022/11/15 09:45:07;;;;;;;;;13.75;13.00;;;;;13.92;87.30;98726.63;4959564;28;45432;-79
2022/11/15 09:47:51;;;;;;;;;16.25;16.25;;;;;13.98;87.42;98723.63;4938839;28;45355;-80
2022/11/15 09:50:46;;;;;;;;;19.50;18.00;;;;;14.05;87.21;98725.94;4955974;28;45330;-80
2022/11/15 09:53:19;;;;;;;;;15.00;14.00;;;;;14.13;87.04;98705.94;4946662;28;45597;-80
2022/11/15 09:56:01;;;;;;;;;13.75;13.75;;;;;14.21;86.59;98710.78;4950268;28;45427;-80
2022/11/15 09:58:44;;;;;;;;;12.00;11.00;;;;;14.27;86.30;98699.78;4945217;28;45416;-80
2022/11/15 10:01:52;;;;;;;;;14.50;12.50;;;;;14.36;86.26;98701.03;4943076;28;45463;-78
2022/11/15 10:04:18;;;;;;;;;10.25;9.00;;;;;14.40;85.74;98690.19;4952485;28;46237;-77
2022/11/15 10:07:03;;;;;;;;;10.20;8.80;;;;;14.42;85.33;98701.53;4949849;28;45512;-77
2022/11/15 10:09:42;;;;;;;;;17.00;12.50;;;;;14.45;85.29;98698.69;4955587;28;45495;-78
2022/11/15 10:12:09;;;;;;;;;11.75;11.75;;;;;14.49;85.32;98691.38;4952647;28;45453;-78
2022/11/15 10:14:35;;;;;;;;;14.00;13.50;;;;;14.51;85.60;98695.66;4950192;28;45716;-77
2022/11/15 10:17:25;;;;;;;;;10.00;10.00;;;;;14.58;85.60;98693.44;4965205;28;45518;-78
2022/11/15 10:19:51;;;;;;;;;14.25;12.50;;;;;14.66;85.22;98680.56;4951778;28;45483;-79
2022/11/15 10:22:26;;;;;;;;;13.25;10.00;;;;;14.73;85.14;98686.34;4956001;28;45442;-78
2022/11/15 10:25:11;;;;;;;;;11.50;11.25;;;;;14.81;85.23;98668.97;4954835;28;46323;-77
2022/11/15 10:27:37;;;;;;;;;15.00;12.20;;;;;14.88;84.38;98675.59;4967391;28;45351;-78
2022/11/15 10:30:09;;;;;;;;;10.75;10.75;;;;;14.91;84.40;98656.78;4939760;28;45607;-79
2022/11/15 10:32:36;;;;;;;;;10.50;9.75;;;;;14.94;84.88;98658.41;4948503;28;45379;-79
2022/11/15 10:35:16;;;;;;;;;11.50;10.50;;;;;14.98;84.75;98660.75;4951704;28;46349;-79
2022/11/15 10:37:42;;;;;;;;;7.40;5.60;;;;;15.01;83.94;98646.44;4948597;28;45399;-78
2022/11/15 10:40:20;;;;;;;;;11.75;11.25;;;;;15.04;84.20;98653.34;4951712;28;45554;-79
2022/11/15 10:42:46;;;;;;;;;6.50;5.75;;;;;15.01;83.22;98651.75;4954062;28;45344;-79
2022/11/15 10:45:30;;;;;;;;;12.25;11.00;;;;;14.99;82.58;98638.56;4952045;28;46176;-79
2022/11/15 10:48:18;;;;;;;;;13.20;12.80;;;;;14.95;83.37;98630.91;4940314;28;45515;-78
2022/11/15 10:50:45;;;;;;;;;14.00;13.00;;;;;14.89;83.50;98631.31;4962666;28;45918;-79
2022/11/15 10:53:40;;;;;;;;;16.25;13.75;;;;;14.84;83.39;98644.88;4946134;28;45438;-78
2022/11/15 10:56:11;;;;;;;;;20.50;19.50;;;;;14.84;83.21;98639.59;4936046;28;46502;-78
2022/11/15 10:58:39;;;;;;;;;16.50;16.50;;;;;14.86;82.94;98639.47;4950346;28;45386;-78
2022/11/15 11:01:20;;;;;;;;;18.75;18.50;;;;;14.84;82.97;98628.09;4955285;28;45484;-78
2022/11/15 11:04:00;;;;;;;;;22.25;21.25;;;;;14.82;82.85;98617.59;4950038;28;45398;-78
2022/11/15 11:06:25;;;;;;;;;23.00;23.00;;;;;14.80;82.22;98619.50;4966484;28;46859;-78
2022/11/15 11:08:59;;;;;;;;;21.25;17.50;;;;;14.78;82.58;98605.47;4950201;28;45617;-78
2022/11/15 11:11:44;;;;;;;;;15.00;11.25;;;;;14.77;82.98;98605.56;4946825;28;45320;-78
2022/11/15 11:14:20;;;;;;;;;16.00;10.00;;;;;14.76;82.89;98591.44;4946304;28;45656;-78
2022/11/15 11:16:52;;;;;;;;;12.75;11.00;;;;;14.75;82.59;98575.63;4953274;28;46581;-77
2022/11/15 11:19:43;;;;;;;;;13.60;12.00;;;;;14.75;83.15;98588.88;4948348;28;45387;-78
2022/11/15 11:22:23;;;;;;;;;13.75;12.50;;;;;14.74;82.78;98592.53;4946655;28;45490;-77
2022/11/15 11:25:14;;;;;;;;;12.00;11.75;;;;;14.74;82.19;98558.88;4950336;28;45477;-78
2022/11/15 11:27:52;;;;;;;;;10.00;10.00;;;;;14.71;82.65;98580.31;4962733;28;48264;-76
2022/11/15 11:30:39;;;;;;;;;10.80;10.40;;;;;14.72;83.06;98578.50;4954359;28;45370;-77
2022/11/15 11:33:16;;;;;;;;;14.00;10.25;;;;;14.72;83.26;98567.88;4954509;28;45500;-79
2022/11/15 11:35:57;;;;;;;;;8.00;8.00;;;;;14.74;82.91;98555.38;4953103;28;45431;-78